sensor_id;sensor_type;location;lat;lon;timestamp;P1;durP1;ratioP1;P2;durP2;ratioP2
66669;SDS011;53568;52.164;4.472;2023-03-26T00:01:19;5.17;;;4.06;;
66669;SDS011;53568;52.164;4.472;2023-03-26T00:03:48;5.26;;;4.01;;
66669;SDS011;53568;52.164;4.472;2023-03-26T00:06:18;5.27;;;4.10;;
66669;SDS011;53568;52.164;4.472;2023-03-26T00:08:49;5.89;;;4.53;;
66669;SDS011;53568;52.164;4.472;2023-03-26T00:11:17;5.66;;;4.37;;
66669;SDS011;53568;52.164;4.472;2023-03-26T00:13:45;5.42;;;4.27;;
66669;SDS011;53568;52.164;4.472;2023-03-26T00:16:12;5.17;;;4.21;;
66669;SDS011;53568;52.164;4.472;2023-03-26T00:18:40;5.91;;;4.69;;
66669;SDS011;53568;52.164;4.472;2023-03-26T00:21:07;5.75;;;4.47;;
66669;SDS011;53568;52.164;4.472;2023-03-26T00:23:36;6.29;;;4.95;;
66669;SDS011;53568;52.164;4.472;2023-03-26T00:26:03;5.36;;;4.21;;
66669;SDS011;53568;52.164;4.472;2023-03-26T00:28:34;5.99;;;4.57;;
66669;SDS011;53568;52.164;4.472;2023-03-26T00:31:02;6.03;;;4.58;;
66669;SDS011;53568;52.164;4.472;2023-03-26T00:33:29;5.85;;;4.43;;
66669;SDS011;53568;52.164;4.472;2023-03-26T00:35:56;6.42;;;5.01;;
66669;SDS011;53568;52.164;4.472;2023-03-26T00:38:26;5.34;;;4.24;;
66669;SDS011;53568;52.164;4.472;2023-03-26T00:40:52;5.29;;;4.22;;
66669;SDS011;53568;52.164;4.472;2023-03-26T00:43:20;5.83;;;4.63;;
66669;SDS011;53568;52.164;4.472;2023-03-26T00:45:49;5.57;;;4.38;;
66669;SDS011;53568;52.164;4.472;2023-03-26T00:48:16;5.50;;;4.34;;
66669;SDS011;53568;52.164;4.472;2023-03-26T00:50:43;5.30;;;4.25;;
66669;SDS011;53568;52.164;4.472;2023-03-26T00:53:10;5.05;;;4.10;;
66669;SDS011;53568;52.164;4.472;2023-03-26T00:55:38;5.32;;;4.23;;
66669;SDS011;53568;52.164;4.472;2023-03-26T00:58:04;4.90;;;3.83;;
66669;SDS011;53568;52.164;4.472;2023-03-26T01:00:34;5.38;;;4.21;;
66669;SDS011;53568;52.164;4.472;2023-03-26T01:03:03;5.40;;;4.23;;
66669;SDS011;53568;52.164;4.472;2023-03-26T01:08:02;4.85;;;4.00;;
66669;SDS011;53568;52.164;4.472;2023-03-26T01:10:40;4.73;;;3.81;;
66669;SDS011;53568;52.164;4.472;2023-03-26T01:13:07;4.51;;;3.63;;
66669;SDS011;53568;52.164;4.472;2023-03-26T01:15:33;4.90;;;3.95;;
66669;SDS011;53568;52.164;4.472;2023-03-26T01:18:02;5.10;;;4.09;;
66669;SDS011;53568;52.164;4.472;2023-03-26T01:20:29;4.79;;;3.76;;
66669;SDS011;53568;52.164;4.472;2023-03-26T01:23:10;5.36;;;4.14;;
66669;SDS011;53568;52.164;4.472;2023-03-26T01:25:42;4.97;;;3.83;;
66669;SDS011;53568;52.164;4.472;2023-03-26T01:28:18;4.30;;;3.40;;
66669;SDS011;53568;52.164;4.472;2023-03-26T01:30:53;4.22;;;3.39;;
66669;SDS011;53568;52.164;4.472;2023-03-26T01:33:55;4.47;;;3.63;;
66669;SDS011;53568;52.164;4.472;2023-03-26T01:39:47;4.73;;;3.75;;
66669;SDS011;53568;52.164;4.472;2023-03-26T01:42:40;5.20;;;3.98;;
66669;SDS011;53568;52.164;4.472;2023-03-26T01:45:33;5.21;;;4.18;;
66669;SDS011;53568;52.164;4.472;2023-03-26T01:48:02;4.70;;;3.79;;
66669;SDS011;53568;52.164;4.472;2023-03-26T01:50:29;4.97;;;4.07;;
66669;SDS011;53568;52.164;4.472;2023-03-26T01:52:55;5.29;;;4.34;;
66669;SDS011;53568;52.164;4.472;2023-03-26T01:55:21;5.29;;;4.43;;
66669;SDS011;53568;52.164;4.472;2023-03-26T01:58:00;4.78;;;4.04;;
66669;SDS011;53568;52.164;4.472;2023-03-26T02:00:56;4.96;;;4.19;;
66669;SDS011;53568;52.164;4.472;2023-03-26T02:03:49;5.57;;;4.71;;
66669;SDS011;53568;52.164;4.472;2023-03-26T02:06:27;5.46;;;4.75;;
66669;SDS011;53568;52.164;4.472;2023-03-26T02:09:07;5.44;;;4.69;;
66669;SDS011;53568;52.164;4.472;2023-03-26T02:11:40;5.84;;;5.07;;
66669;SDS011;53568;52.164;4.472;2023-03-26T02:14:06;6.49;;;5.56;;
66669;SDS011;53568;52.164;4.472;2023-03-26T02:16:33;6.67;;;5.71;;
66669;SDS011;53568;52.164;4.472;2023-03-26T02:18:59;6.90;;;5.89;;
66669;SDS011;53568;52.164;4.472;2023-03-26T02:21:25;6.68;;;5.66;;
66669;SDS011;53568;52.164;4.472;2023-03-26T02:23:53;7.41;;;6.11;;
66669;SDS011;53568;52.164;4.472;2023-03-26T02:26:27;8.43;;;6.81;;
66669;SDS011;53568;52.164;4.472;2023-03-26T02:28:55;8.17;;;6.72;;
66669;SDS011;53568;52.164;4.472;2023-03-26T02:31:21;7.95;;;6.53;;
66669;SDS011;53568;52.164;4.472;2023-03-26T02:33:50;9.20;;;7.23;;
66669;SDS011;53568;52.164;4.472;2023-03-26T02:36:17;10.18;;;7.69;;
66669;SDS011;53568;52.164;4.472;2023-03-26T02:38:46;10.77;;;8.15;;
66669;SDS011;53568;52.164;4.472;2023-03-26T02:41:11;12.10;;;9.06;;
66669;SDS011;53568;52.164;4.472;2023-03-26T02:43:37;12.18;;;9.15;;
66669;SDS011;53568;52.164;4.472;2023-03-26T02:46:02;12.23;;;9.14;;
66669;SDS011;53568;52.164;4.472;2023-03-26T02:48:28;13.63;;;9.95;;
66669;SDS011;53568;52.164;4.472;2023-03-26T02:50:53;13.50;;;9.78;;
66669;SDS011;53568;52.164;4.472;2023-03-26T02:53:19;14.59;;;10.36;;
66669;SDS011;53568;52.164;4.472;2023-03-26T02:55:48;15.82;;;11.05;;
66669;SDS011;53568;52.164;4.472;2023-03-26T02:58:14;16.02;;;11.00;;
66669;SDS011;53568;52.164;4.472;2023-03-26T03:00:42;15.43;;;10.54;;
66669;SDS011;53568;52.164;4.472;2023-03-26T03:03:10;18.55;;;12.14;;
66669;SDS011;53568;52.164;4.472;2023-03-26T03:05:36;17.54;;;11.56;;
66669;SDS011;53568;52.164;4.472;2023-03-26T03:08:02;16.00;;;10.80;;
66669;SDS011;53568;52.164;4.472;2023-03-26T03:10:30;18.57;;;12.40;;
66669;SDS011;53568;52.164;4.472;2023-03-26T03:12:57;18.61;;;12.36;;
66669;SDS011;53568;52.164;4.472;2023-03-26T03:15:23;17.17;;;11.60;;
66669;SDS011;53568;52.164;4.472;2023-03-26T03:17:49;17.71;;;12.03;;
66669;SDS011;53568;52.164;4.472;2023-03-26T03:20:15;18.38;;;12.41;;
66669;SDS011;53568;52.164;4.472;2023-03-26T03:22:41;19.63;;;13.02;;
66669;SDS011;53568;52.164;4.472;2023-03-26T03:25:07;21.84;;;14.31;;
66669;SDS011;53568;52.164;4.472;2023-03-26T03:27:38;21.17;;;14.09;;
66669;SDS011;53568;52.164;4.472;2023-03-26T03:30:05;22.38;;;14.81;;
66669;SDS011;53568;52.164;4.472;2023-03-26T03:32:31;22.11;;;14.73;;
66669;SDS011;53568;52.164;4.472;2023-03-26T03:34:57;22.78;;;15.46;;
66669;SDS011;53568;52.164;4.472;2023-03-26T03:37:22;22.28;;;15.27;;
66669;SDS011;53568;52.164;4.472;2023-03-26T03:39:49;21.63;;;14.91;;
66669;SDS011;53568;52.164;4.472;2023-03-26T03:42:14;22.12;;;15.39;;
66669;SDS011;53568;52.164;4.472;2023-03-26T03:44:40;21.68;;;15.40;;
66669;SDS011;53568;52.164;4.472;2023-03-26T03:47:05;22.68;;;16.02;;
66669;SDS011;53568;52.164;4.472;2023-03-26T03:49:31;22.73;;;16.35;;
66669;SDS011;53568;52.164;4.472;2023-03-26T03:51:56;21.18;;;15.25;;
66669;SDS011;53568;52.164;4.472;2023-03-26T03:54:22;21.17;;;15.60;;
66669;SDS011;53568;52.164;4.472;2023-03-26T03:56:48;21.73;;;16.02;;
66669;SDS011;53568;52.164;4.472;2023-03-26T03:59:14;20.60;;;15.02;;
66669;SDS011;53568;52.164;4.472;2023-03-26T04:01:39;20.39;;;15.05;;
66669;SDS011;53568;52.164;4.472;2023-03-26T04:04:11;20.81;;;15.23;;
66669;SDS011;53568;52.164;4.472;2023-03-26T04:06:37;22.38;;;16.02;;
66669;SDS011;53568;52.164;4.472;2023-03-26T04:09:02;23.56;;;16.70;;
66669;SDS011;53568;52.164;4.472;2023-03-26T04:11:28;22.43;;;15.93;;
66669;SDS011;53568;52.164;4.472;2023-03-26T04:13:54;22.51;;;16.37;;
66669;SDS011;53568;52.164;4.472;2023-03-26T04:16:19;22.52;;;16.32;;
66669;SDS011;53568;52.164;4.472;2023-03-26T04:18:45;20.46;;;15.28;;
66669;SDS011;53568;52.164;4.472;2023-03-26T04:21:11;19.83;;;15.16;;
66669;SDS011;53568;52.164;4.472;2023-03-26T04:23:36;20.12;;;15.23;;
66669;SDS011;53568;52.164;4.472;2023-03-26T04:26:04;19.70;;;15.19;;
66669;SDS011;53568;52.164;4.472;2023-03-26T04:31:23;20.10;;;15.67;;
66669;SDS011;53568;52.164;4.472;2023-03-26T04:33:53;19.82;;;15.85;;
66669;SDS011;53568;52.164;4.472;2023-03-26T04:36:28;18.27;;;14.89;;
66669;SDS011;53568;52.164;4.472;2023-03-26T04:38:56;19.30;;;15.42;;
66669;SDS011;53568;52.164;4.472;2023-03-26T04:41:27;18.24;;;14.92;;
66669;SDS011;53568;52.164;4.472;2023-03-26T04:43:53;18.49;;;15.29;;
66669;SDS011;53568;52.164;4.472;2023-03-26T04:46:19;18.75;;;15.19;;
66669;SDS011;53568;52.164;4.472;2023-03-26T04:48:46;19.23;;;15.21;;
66669;SDS011;53568;52.164;4.472;2023-03-26T04:51:13;20.25;;;15.96;;
66669;SDS011;53568;52.164;4.472;2023-03-26T04:53:44;19.62;;;15.22;;
66669;SDS011;53568;52.164;4.472;2023-03-26T04:59:04;18.94;;;15.01;;
66669;SDS011;53568;52.164;4.472;2023-03-26T05:01:30;19.50;;;15.34;;
66669;SDS011;53568;52.164;4.472;2023-03-26T05:03:56;19.51;;;15.26;;
66669;SDS011;53568;52.164;4.472;2023-03-26T05:06:23;17.35;;;13.92;;
66669;SDS011;53568;52.164;4.472;2023-03-26T05:08:52;19.26;;;15.07;;
66669;SDS011;53568;52.164;4.472;2023-03-26T05:11:18;20.10;;;15.67;;
66669;SDS011;53568;52.164;4.472;2023-03-26T05:13:43;18.53;;;14.86;;
66669;SDS011;53568;52.164;4.472;2023-03-26T05:16:09;18.55;;;14.69;;
66669;SDS011;53568;52.164;4.472;2023-03-26T05:18:35;19.27;;;15.11;;
66669;SDS011;53568;52.164;4.472;2023-03-26T05:21:01;19.88;;;15.41;;
66669;SDS011;53568;52.164;4.472;2023-03-26T05:23:26;18.08;;;14.77;;
66669;SDS011;53568;52.164;4.472;2023-03-26T05:25:52;18.78;;;15.52;;
66669;SDS011;53568;52.164;4.472;2023-03-26T05:28:17;18.39;;;15.27;;
66669;SDS011;53568;52.164;4.472;2023-03-26T05:30:48;19.70;;;16.08;;
66669;SDS011;53568;52.164;4.472;2023-03-26T05:33:17;20.25;;;16.29;;
66669;SDS011;53568;52.164;4.472;2023-03-26T05:35:43;19.78;;;16.21;;
66669;SDS011;53568;52.164;4.472;2023-03-26T05:38:09;17.58;;;15.19;;
66669;SDS011;53568;52.164;4.472;2023-03-26T05:40:35;18.52;;;15.71;;
66669;SDS011;53568;52.164;4.472;2023-03-26T05:43:01;19.11;;;16.12;;
66669;SDS011;53568;52.164;4.472;2023-03-26T05:45:27;19.52;;;16.39;;
66669;SDS011;53568;52.164;4.472;2023-03-26T05:47:52;19.39;;;16.25;;
66669;SDS011;53568;52.164;4.472;2023-03-26T05:50:19;19.49;;;16.40;;
66669;SDS011;53568;52.164;4.472;2023-03-26T05:52:45;19.23;;;16.23;;
66669;SDS011;53568;52.164;4.472;2023-03-26T05:55:11;20.79;;;17.13;;
66669;SDS011;53568;52.164;4.472;2023-03-26T05:57:37;19.01;;;16.33;;
66669;SDS011;53568;52.164;4.472;2023-03-26T06:00:04;18.31;;;15.99;;
66669;SDS011;53568;52.164;4.472;2023-03-26T06:02:33;18.83;;;16.39;;
66669;SDS011;53568;52.164;4.472;2023-03-26T06:04:59;19.98;;;16.85;;
66669;SDS011;53568;52.164;4.472;2023-03-26T06:07:25;21.07;;;17.43;;
66669;SDS011;53568;52.164;4.472;2023-03-26T06:09:51;21.86;;;18.04;;
66669;SDS011;53568;52.164;4.472;2023-03-26T06:12:17;20.66;;;17.33;;
66669;SDS011;53568;52.164;4.472;2023-03-26T06:14:43;19.64;;;16.87;;
66669;SDS011;53568;52.164;4.472;2023-03-26T06:17:09;19.63;;;16.99;;
66669;SDS011;53568;52.164;4.472;2023-03-26T06:19:36;20.98;;;17.97;;
66669;SDS011;53568;52.164;4.472;2023-03-26T06:22:02;20.54;;;17.68;;
66669;SDS011;53568;52.164;4.472;2023-03-26T06:24:28;20.78;;;17.93;;
66669;SDS011;53568;52.164;4.472;2023-03-26T06:26:54;20.52;;;17.96;;
66669;SDS011;53568;52.164;4.472;2023-03-26T06:29:19;19.87;;;17.68;;
66669;SDS011;53568;52.164;4.472;2023-03-26T06:31:45;20.30;;;18.03;;
66669;SDS011;53568;52.164;4.472;2023-03-26T06:34:10;20.44;;;17.80;;
66669;SDS011;53568;52.164;4.472;2023-03-26T06:36:36;20.63;;;17.70;;
66669;SDS011;53568;52.164;4.472;2023-03-26T06:39:02;19.82;;;17.17;;
66669;SDS011;53568;52.164;4.472;2023-03-26T06:41:28;19.15;;;17.23;;
66669;SDS011;53568;52.164;4.472;2023-03-26T06:43:53;19.64;;;17.84;;
66669;SDS011;53568;52.164;4.472;2023-03-26T06:46:19;20.24;;;18.45;;
66669;SDS011;53568;52.164;4.472;2023-03-26T06:48:45;19.35;;;17.92;;
66669;SDS011;53568;52.164;4.472;2023-03-26T06:51:11;21.22;;;19.00;;
66669;SDS011;53568;52.164;4.472;2023-03-26T06:53:36;21.43;;;19.60;;
66669;SDS011;53568;52.164;4.472;2023-03-26T06:56:02;21.50;;;19.68;;
66669;SDS011;53568;52.164;4.472;2023-03-26T06:58:27;23.61;;;21.48;;
66669;SDS011;53568;52.164;4.472;2023-03-26T07:00:54;26.55;;;23.46;;
66669;SDS011;53568;52.164;4.472;2023-03-26T07:03:20;25.94;;;23.48;;
66669;SDS011;53568;52.164;4.472;2023-03-26T07:05:46;25.75;;;23.85;;
66669;SDS011;53568;52.164;4.472;2023-03-26T07:08:12;26.03;;;24.08;;
66669;SDS011;53568;52.164;4.472;2023-03-26T07:10:38;26.92;;;25.00;;
66669;SDS011;53568;52.164;4.472;2023-03-26T07:13:05;27.32;;;25.41;;
66669;SDS011;53568;52.164;4.472;2023-03-26T07:15:30;26.83;;;24.99;;
66669;SDS011;53568;52.164;4.472;2023-03-26T07:17:56;27.20;;;25.62;;
66669;SDS011;53568;52.164;4.472;2023-03-26T07:20:22;29.03;;;27.23;;
66669;SDS011;53568;52.164;4.472;2023-03-26T07:22:48;28.65;;;27.16;;
66669;SDS011;53568;52.164;4.472;2023-03-26T07:25:15;28.36;;;26.95;;
66669;SDS011;53568;52.164;4.472;2023-03-26T07:30:08;28.93;;;27.55;;
66669;SDS011;53568;52.164;4.472;2023-03-26T07:45:39;28.04;;;26.34;;
66669;SDS011;53568;52.164;4.472;2023-03-26T07:48:32;27.12;;;25.28;;
66669;SDS011;53568;52.164;4.472;2023-03-26T07:51:00;26.91;;;25.17;;
66669;SDS011;53568;52.164;4.472;2023-03-26T07:53:27;26.10;;;24.53;;
66669;SDS011;53568;52.164;4.472;2023-03-26T07:55:57;26.70;;;24.89;;
66669;SDS011;53568;52.164;4.472;2023-03-26T07:58:40;25.08;;;23.65;;
66669;SDS011;53568;52.164;4.472;2023-03-26T08:01:45;25.73;;;24.22;;
66669;SDS011;53568;52.164;4.472;2023-03-26T08:12:21;23.67;;;22.48;;
66669;SDS011;53568;52.164;4.472;2023-03-26T08:20:25;21.36;;;20.86;;
66669;SDS011;53568;52.164;4.472;2023-03-26T08:23:07;20.38;;;19.93;;
66669;SDS011;53568;52.164;4.472;2023-03-26T08:31:02;16.54;;;16.35;;
66669;SDS011;53568;52.164;4.472;2023-03-26T08:33:28;13.85;;;13.69;;
66669;SDS011;53568;52.164;4.472;2023-03-26T08:35:54;13.40;;;13.21;;
66669;SDS011;53568;52.164;4.472;2023-03-26T08:38:20;12.27;;;12.23;;
66669;SDS011;53568;52.164;4.472;2023-03-26T08:54:56;12.61;;;12.36;;
66669;SDS011;53568;52.164;4.472;2023-03-26T09:00:56;13.71;;;13.49;;
66669;SDS011;53568;52.164;4.472;2023-03-26T09:15:02;12.33;;;12.13;;
66669;SDS011;53568;52.164;4.472;2023-03-26T09:17:51;12.35;;;12.05;;
66669;SDS011;53568;52.164;4.472;2023-03-26T09:26:45;10.39;;;10.34;;
66669;SDS011;53568;52.164;4.472;2023-03-26T09:32:06;8.99;;;8.90;;
66669;SDS011;53568;52.164;4.472;2023-03-26T09:34:50;8.76;;;8.59;;
66669;SDS011;53568;52.164;4.472;2023-03-26T09:37:48;8.42;;;8.35;;
66669;SDS011;53568;52.164;4.472;2023-03-26T09:51:47;7.32;;;6.47;;
66669;SDS011;53568;52.164;4.472;2023-03-26T09:54:45;7.08;;;6.26;;
66669;SDS011;53568;52.164;4.472;2023-03-26T10:05:45;7.12;;;5.93;;
66669;SDS011;53568;52.164;4.472;2023-03-26T10:11:10;7.44;;;6.04;;
66669;SDS011;53568;52.164;4.472;2023-03-26T10:13:59;8.32;;;6.62;;
66669;SDS011;53568;52.164;4.472;2023-03-26T10:28:53;9.37;;;6.91;;
66669;SDS011;53568;52.164;4.472;2023-03-26T10:36:36;8.21;;;6.33;;
66669;SDS011;53568;52.164;4.472;2023-03-26T10:48:19;8.75;;;6.38;;
66669;SDS011;53568;52.164;4.472;2023-03-26T10:59:48;10.12;;;7.47;;
66669;SDS011;53568;52.164;4.472;2023-03-26T11:02:37;8.93;;;6.81;;
66669;SDS011;53568;52.164;4.472;2023-03-26T11:07:56;9.12;;;6.77;;
66669;SDS011;53568;52.164;4.472;2023-03-26T11:13:14;8.77;;;6.64;;
66669;SDS011;53568;52.164;4.472;2023-03-26T11:16:12;9.34;;;6.83;;
66669;SDS011;53568;52.164;4.472;2023-03-26T11:19:01;8.46;;;6.46;;
66669;SDS011;53568;52.164;4.472;2023-03-26T11:21:38;8.06;;;6.27;;
66669;SDS011;53568;52.164;4.472;2023-03-26T11:32:59;8.34;;;6.18;;
66669;SDS011;53568;52.164;4.472;2023-03-26T11:35:30;8.23;;;6.05;;
66669;SDS011;53568;52.164;4.472;2023-03-26T11:38:03;7.74;;;5.72;;
66669;SDS011;53568;52.164;4.472;2023-03-26T11:40:41;6.83;;;5.15;;
66669;SDS011;53568;52.164;4.472;2023-03-26T11:43:14;8.32;;;6.08;;
66669;SDS011;53568;52.164;4.472;2023-03-26T11:45:43;8.10;;;5.87;;
66669;SDS011;53568;52.164;4.472;2023-03-26T11:51:22;8.57;;;5.87;;
66669;SDS011;53568;52.164;4.472;2023-03-26T11:53:49;9.10;;;6.23;;
66669;SDS011;53568;52.164;4.472;2023-03-26T12:01:41;7.94;;;5.60;;
66669;SDS011;53568;52.164;4.472;2023-03-26T12:04:15;7.52;;;5.32;;
66669;SDS011;53568;52.164;4.472;2023-03-26T12:09:17;7.85;;;5.61;;
66669;SDS011;53568;52.164;4.472;2023-03-26T12:11:44;7.23;;;5.34;;
66669;SDS011;53568;52.164;4.472;2023-03-26T12:14:46;8.04;;;5.87;;
66669;SDS011;53568;52.164;4.472;2023-03-26T12:17:07;7.23;;;5.31;;
66669;SDS011;53568;52.164;4.472;2023-03-26T12:19:38;7.85;;;5.82;;
66669;SDS011;53568;52.164;4.472;2023-03-26T12:28:04;6.80;;;5.00;;
66669;SDS011;53568;52.164;4.472;2023-03-26T12:30:52;6.37;;;4.68;;
66669;SDS011;53568;52.164;4.472;2023-03-26T12:35:58;7.54;;;5.24;;
66669;SDS011;53568;52.164;4.472;2023-03-26T12:38:49;7.79;;;5.37;;
66669;SDS011;53568;52.164;4.472;2023-03-26T12:41:15;7.18;;;4.95;;
66669;SDS011;53568;52.164;4.472;2023-03-26T12:46:30;7.82;;;5.37;;
66669;SDS011;53568;52.164;4.472;2023-03-26T12:49:02;7.42;;;5.11;;
66669;SDS011;53568;52.164;4.472;2023-03-26T12:57:19;6.62;;;4.89;;
66669;SDS011;53568;52.164;4.472;2023-03-26T12:59:59;7.13;;;5.18;;
66669;SDS011;53568;52.164;4.472;2023-03-26T13:13:53;5.17;;;3.97;;
66669;SDS011;53568;52.164;4.472;2023-03-26T13:21:56;5.21;;;3.71;;
66669;SDS011;53568;52.164;4.472;2023-03-26T13:27:43;5.80;;;4.12;;
66669;SDS011;53568;52.164;4.472;2023-03-26T13:35:43;6.06;;;4.21;;
66669;SDS011;53568;52.164;4.472;2023-03-26T13:38:38;5.77;;;4.05;;
66669;SDS011;53568;52.164;4.472;2023-03-26T13:41:11;5.59;;;3.89;;
66669;SDS011;53568;52.164;4.472;2023-03-26T13:44:17;6.06;;;4.23;;
66669;SDS011;53568;52.164;4.472;2023-03-26T13:47:03;5.95;;;4.07;;
66669;SDS011;53568;52.164;4.472;2023-03-26T13:50:27;5.83;;;3.96;;
66669;SDS011;53568;52.164;4.472;2023-03-26T13:52:37;5.29;;;3.66;;
66669;SDS011;53568;52.164;4.472;2023-03-26T13:56:07;5.68;;;3.87;;
66669;SDS011;53568;52.164;4.472;2023-03-26T14:03:26;4.54;;;3.24;;
66669;SDS011;53568;52.164;4.472;2023-03-26T14:09:17;4.25;;;3.08;;
66669;SDS011;53568;52.164;4.472;2023-03-26T14:12:51;4.32;;;3.12;;
66669;SDS011;53568;52.164;4.472;2023-03-26T14:15:22;4.66;;;3.32;;
66669;SDS011;53568;52.164;4.472;2023-03-26T14:18:06;4.48;;;3.17;;
66669;SDS011;53568;52.164;4.472;2023-03-26T14:29:43;4.99;;;3.47;;
66669;SDS011;53568;52.164;4.472;2023-03-26T14:46:36;4.36;;;3.18;;
66669;SDS011;53568;52.164;4.472;2023-03-26T14:49:12;4.59;;;3.35;;
66669;SDS011;53568;52.164;4.472;2023-03-26T14:55:01;4.53;;;3.31;;
66669;SDS011;53568;52.164;4.472;2023-03-26T15:13:59;4.88;;;3.51;;
66669;SDS011;53568;52.164;4.472;2023-03-26T15:19:54;5.16;;;3.68;;
66669;SDS011;53568;52.164;4.472;2023-03-26T15:34:38;4.97;;;3.59;;
66669;SDS011;53568;52.164;4.472;2023-03-26T15:38:03;4.45;;;3.26;;
66669;SDS011;53568;52.164;4.472;2023-03-26T15:46:51;4.31;;;3.28;;
66669;SDS011;53568;52.164;4.472;2023-03-26T15:49:18;4.03;;;3.09;;
66669;SDS011;53568;52.164;4.472;2023-03-26T15:54:29;4.09;;;3.15;;
66669;SDS011;53568;52.164;4.472;2023-03-26T15:59:46;3.94;;;3.04;;
66669;SDS011;53568;52.164;4.472;2023-03-26T16:05:30;4.52;;;3.38;;
66669;SDS011;53568;52.164;4.472;2023-03-26T16:08:27;4.22;;;3.14;;
66669;SDS011;53568;52.164;4.472;2023-03-26T16:11:03;4.33;;;3.21;;
66669;SDS011;53568;52.164;4.472;2023-03-26T16:16:51;4.35;;;3.17;;
66669;SDS011;53568;52.164;4.472;2023-03-26T16:21:54;4.63;;;3.33;;
66669;SDS011;53568;52.164;4.472;2023-03-26T16:24:25;4.16;;;3.00;;
66669;SDS011;53568;52.164;4.472;2023-03-26T16:32:54;3.52;;;2.65;;
66669;SDS011;53568;52.164;4.472;2023-03-26T16:35:37;3.39;;;2.51;;
66669;SDS011;53568;52.164;4.472;2023-03-26T16:38:10;4.22;;;3.03;;
66669;SDS011;53568;52.164;4.472;2023-03-26T16:40:57;4.36;;;3.13;;
66669;SDS011;53568;52.164;4.472;2023-03-26T16:48:39;3.97;;;2.90;;
66669;SDS011;53568;52.164;4.472;2023-03-26T16:54:27;4.62;;;3.35;;
66669;SDS011;53568;52.164;4.472;2023-03-26T17:00:20;4.22;;;3.02;;
66669;SDS011;53568;52.164;4.472;2023-03-26T17:03:08;4.20;;;3.04;;
66669;SDS011;53568;52.164;4.472;2023-03-26T17:11:00;3.54;;;2.65;;
66669;SDS011;53568;52.164;4.472;2023-03-26T17:16:31;3.57;;;2.73;;
66669;SDS011;53568;52.164;4.472;2023-03-26T17:22:01;3.31;;;2.56;;
66669;SDS011;53568;52.164;4.472;2023-03-26T17:27:21;4.32;;;3.16;;
66669;SDS011;53568;52.164;4.472;2023-03-26T17:32:57;4.80;;;3.51;;
66669;SDS011;53568;52.164;4.472;2023-03-26T17:38:01;4.92;;;3.53;;
66669;SDS011;53568;52.164;4.472;2023-03-26T17:40:42;5.24;;;3.83;;
66669;SDS011;53568;52.164;4.472;2023-03-26T17:46:01;5.59;;;4.03;;
66669;SDS011;53568;52.164;4.472;2023-03-26T17:48:49;4.97;;;3.66;;
66669;SDS011;53568;52.164;4.472;2023-03-26T17:51:43;4.41;;;3.31;;
66669;SDS011;53568;52.164;4.472;2023-03-26T17:54:41;4.30;;;3.30;;
66669;SDS011;53568;52.164;4.472;2023-03-26T17:59:36;4.81;;;3.61;;
66669;SDS011;53568;52.164;4.472;2023-03-26T18:02:08;5.18;;;3.76;;
66669;SDS011;53568;52.164;4.472;2023-03-26T18:04:40;5.17;;;3.74;;
66669;SDS011;53568;52.164;4.472;2023-03-26T18:07:54;5.65;;;4.05;;
66669;SDS011;53568;52.164;4.472;2023-03-26T18:21:18;4.98;;;3.70;;
66669;SDS011;53568;52.164;4.472;2023-03-26T18:23:49;5.04;;;3.70;;
66669;SDS011;53568;52.164;4.472;2023-03-26T18:26:18;4.78;;;3.47;;
66669;SDS011;53568;52.164;4.472;2023-03-26T18:29:10;4.76;;;3.51;;
66669;SDS011;53568;52.164;4.472;2023-03-26T18:34:25;5.80;;;4.20;;
66669;SDS011;53568;52.164;4.472;2023-03-26T18:39:40;4.74;;;3.50;;
66669;SDS011;53568;52.164;4.472;2023-03-26T18:42:15;4.62;;;3.34;;
66669;SDS011;53568;52.164;4.472;2023-03-26T18:44:47;4.68;;;3.34;;
66669;SDS011;53568;52.164;4.472;2023-03-26T18:47:17;4.71;;;3.34;;
66669;SDS011;53568;52.164;4.472;2023-03-26T18:49:45;5.31;;;3.71;;
66669;SDS011;53568;52.164;4.472;2023-03-26T18:52:17;4.70;;;3.34;;
66669;SDS011;53568;52.164;4.472;2023-03-26T18:54:47;4.25;;;3.02;;
66669;SDS011;53568;52.164;4.472;2023-03-26T18:57:20;4.74;;;3.34;;
66669;SDS011;53568;52.164;4.472;2023-03-26T18:59:52;5.09;;;3.59;;
66669;SDS011;53568;52.164;4.472;2023-03-26T19:02:19;4.70;;;3.33;;
66669;SDS011;53568;52.164;4.472;2023-03-26T19:04:47;4.85;;;3.50;;
66669;SDS011;53568;52.164;4.472;2023-03-26T19:07:20;4.72;;;3.38;;
66669;SDS011;53568;52.164;4.472;2023-03-26T19:09:49;4.89;;;3.53;;
66669;SDS011;53568;52.164;4.472;2023-03-26T19:12:29;4.79;;;3.44;;
66669;SDS011;53568;52.164;4.472;2023-03-26T19:15:05;5.00;;;3.59;;
66669;SDS011;53568;52.164;4.472;2023-03-26T19:17:39;5.30;;;3.81;;
66669;SDS011;53568;52.164;4.472;2023-03-26T19:20:15;5.24;;;3.87;;
66669;SDS011;53568;52.164;4.472;2023-03-26T19:22:53;4.80;;;3.59;;
66669;SDS011;53568;52.164;4.472;2023-03-26T19:25:21;5.16;;;3.89;;
66669;SDS011;53568;52.164;4.472;2023-03-26T19:27:52;4.72;;;3.56;;
66669;SDS011;53568;52.164;4.472;2023-03-26T19:30:21;4.93;;;3.74;;
66669;SDS011;53568;52.164;4.472;2023-03-26T19:32:52;4.85;;;3.66;;
66669;SDS011;53568;52.164;4.472;2023-03-26T19:35:19;4.88;;;3.61;;
66669;SDS011;53568;52.164;4.472;2023-03-26T19:37:51;4.50;;;3.46;;
66669;SDS011;53568;52.164;4.472;2023-03-26T19:40:20;4.70;;;3.60;;
66669;SDS011;53568;52.164;4.472;2023-03-26T19:42:56;5.36;;;4.03;;
66669;SDS011;53568;52.164;4.472;2023-03-26T19:45:22;5.27;;;3.98;;
66669;SDS011;53568;52.164;4.472;2023-03-26T19:47:50;5.34;;;4.05;;
66669;SDS011;53568;52.164;4.472;2023-03-26T19:50:19;5.11;;;3.94;;
66669;SDS011;53568;52.164;4.472;2023-03-26T19:53:02;4.91;;;3.90;;
66669;SDS011;53568;52.164;4.472;2023-03-26T19:55:35;4.17;;;3.44;;
66669;SDS011;53568;52.164;4.472;2023-03-26T19:58:01;4.44;;;3.71;;
66669;SDS011;53568;52.164;4.472;2023-03-26T20:00:27;5.12;;;4.11;;
66669;SDS011;53568;52.164;4.472;2023-03-26T20:02:53;4.99;;;3.92;;
66669;SDS011;53568;52.164;4.472;2023-03-26T20:05:21;5.32;;;4.08;;
66669;SDS011;53568;52.164;4.472;2023-03-26T20:07:47;4.98;;;3.85;;
66669;SDS011;53568;52.164;4.472;2023-03-26T20:10:14;4.31;;;3.40;;
66669;SDS011;53568;52.164;4.472;2023-03-26T20:12:40;4.50;;;3.45;;
66669;SDS011;53568;52.164;4.472;2023-03-26T20:17:37;5.32;;;3.88;;
66669;SDS011;53568;52.164;4.472;2023-03-26T20:20:07;5.08;;;3.72;;
66669;SDS011;53568;52.164;4.472;2023-03-26T20:22:36;5.46;;;3.98;;
66669;SDS011;53568;52.164;4.472;2023-03-26T20:25:11;5.41;;;3.93;;
66669;SDS011;53568;52.164;4.472;2023-03-26T20:27:43;5.73;;;4.13;;
66669;SDS011;53568;52.164;4.472;2023-03-26T20:30:09;5.25;;;3.83;;
66669;SDS011;53568;52.164;4.472;2023-03-26T20:32:35;4.56;;;3.40;;
66669;SDS011;53568;52.164;4.472;2023-03-26T20:35:23;4.73;;;3.52;;
66669;SDS011;53568;52.164;4.472;2023-03-26T20:37:49;5.10;;;3.79;;
66669;SDS011;53568;52.164;4.472;2023-03-26T20:40:15;5.39;;;3.86;;
66669;SDS011;53568;52.164;4.472;2023-03-26T20:42:42;5.03;;;3.63;;
66669;SDS011;53568;52.164;4.472;2023-03-26T20:45:27;4.76;;;3.46;;
66669;SDS011;53568;52.164;4.472;2023-03-26T20:47:52;5.66;;;3.96;;
66669;SDS011;53568;52.164;4.472;2023-03-26T20:50:19;5.30;;;3.73;;
66669;SDS011;53568;52.164;4.472;2023-03-26T20:52:47;4.68;;;3.38;;
66669;SDS011;53568;52.164;4.472;2023-03-26T20:55:18;4.32;;;3.13;;
66669;SDS011;53568;52.164;4.472;2023-03-26T20:57:48;4.60;;;3.29;;
66669;SDS011;53568;52.164;4.472;2023-03-26T21:00:15;4.41;;;3.19;;
66669;SDS011;53568;52.164;4.472;2023-03-26T21:02:52;4.07;;;3.03;;
66669;SDS011;53568;52.164;4.472;2023-03-26T21:05:22;3.50;;;2.60;;